TFM - Tactical Decision Aid (Experimental) INFO Settings
ID: Runway Winds: CIG/VIS Threshold: METAR Board: Map:

KENW - Kenosha Rgnl

Updated at: 2302 UTC 20 Feb 2018
Latest TAF at: 2131 UTC 20 Feb 2018

TAF Board

Time2253Z21/00Z21/01Z21/02Z21/03Z21/04Z21/05Z21/06Z21/07Z21/08Z21/09Z21/10Z21/11Z21/12Z
TypeOBSPRVLPRVLPRVLPRVLPRVLPRVLPRVLPRVLPRVLPRVLPRVLPRVLPRVL
VIS10666555>6>6>6>6>6>6>6
CIG10101010151515404040404040--
CoverOVCOVCOVCOVCOVCOVCOVCBKNBKNBKNBKNBKNBKNSCT
FltCatMVFRMVFRMVFRMVFRMVFRMVFRMVFRVFRVFRVFRVFRVFRVFRVFR
WX-RA-SHRA-SHRA-SHRABR VCSHBR VCSHBR VCSH--------------
WDir270280280280310310310310310310310310310320
WSpd1288810101012121212121212
WGst----------------------------
R07/25
XWnd555599911111111111112
HWnd-11-6-6-6-4-4-4-5-5-5-5-5-5-3
R15/33
XWnd-10-6-6-6-2-2-2-3-3-3-3-3-3-1
HWnd-7-6-6-6-10-10-10-12-12-12-12-12-12-12
TAF
KENW 202131Z 2022/2118 26006KT 4SM -SHRA BR BKN006 OVC070
  FM210000 28008KT 6SM -SHRA BKN010 OVC050
  FM210300 31010KT 5SM BR VCSH BKN015 OVC040
  FM210600 31012KT P6SM SCT015 BKN040
  FM211200 32012KT P6SM SCT250


METAR Board

Time20/12Z 20/13Z 20/14Z 20/15Z 20/16Z 20/17Z 20/18Z 20/19Z 20/20Z 20/21Z 20/22Z 20/23Z
VIS7 10 10 10 4 3 2 3 5 2 4 10
CIG14 10 7 29 10 9 9 4 65 6 10 10
CoverOVCOVCOVCOVCOVCOVCOVCOVCOVCOVCOVCOVC
FltCatMVFRMVFRIFRMVFRMVFRIFRIFRLIFRMVFRIFRMVFRMVFR
WX-RA-------RA BRBRBR-TSRA BR-RA BRRA BRRA BR-RA
WDir2202302703100110140310260250270270
WSpd11 12 10 9 0 6 6 13 9 5 11 12
WGst18 -- -- 15 -- -- -- 20 -- -- -- --
METAR
KENW 201153Z AUTO 22011G18KT 7SM -RA FEW004 BKN014 OVC020 13/12 A2980 RMK AO2 RAE1054B27 SLP093 P0002 60052 70080 T01280117 10144 20094 53001
KENW 201253Z 23012KT 10SM BKN010 BKN050 OVC075 13/12 A2981 RMK AO2 RAE43 SLP097 P0001 T01330122
KENW 201353Z 27010KT 10SM OVC007 12/11 A2985 RMK AO2 RAB00E28 SLP110 P0000 T01220106
KENW 201501Z 31009G15KT 10SM FEW005 BKN029 OVC065 11/10 A2985 RMK AO2 RAE1459 P0000 T01110100
KENW 201600Z 00000KT 4SM -RA BR BKN010 OVC013 10/09 A2984 RMK AO2 P0000 T01000089
KENW 201653Z 11006KT 3SM BR FEW003 BKN009 OVC047 11/09 A2982 RMK AO2 RAE06 SLP100 P0000 T01110094
KENW 201753Z 14006KT 2SM BR SCT003 BKN009 OVC035 12/11 A2980 RMK AO2 SLP092 60027 T01220111 10133 20094 58012
KENW 201853Z 31013G20KT 3SM -TSRA BR BKN004 BKN010 OVC027 12/10 A2982 RMK AO2 PK WND 31027/1842 LTG DSNT N RAB07E37B46 TSE37B39 SLP099 OCNL LTGICCC NW TS NW MOV E P0002 T01170100
KENW 201953Z 26009KT 5SM -RA BR FEW009 BKN065 OVC090 11/10 A2982 RMK AO2 TSE12 SLP098 TS MOV NE P0008 T01110100
KENW 202105Z 25005KT 2SM RA BR BKN006 OVC070 09/08 A2985 RMK AO2 P0002 T00940083
KENW 202202Z 27011KT 4SM RA BR BKN010 OVC095 07/05 A2988 RMK AO2 PRESRR P0002 T00670050
KENW 202253Z 27012KT 10SM -RA OVC010 05/03 A2997 RMK AO2 CIG 008V015 PRESRR SLP152 P0003 T00500028

TAF/METAR Board Legend

Potential Impact
  None Marginal Slight Moderate High
Visibility (sm) >5 3≤X≤5 1≤X<3 <1
Ceiling (100 ft) >30 10≤X≤30 5≤X<10 <5
Wind Speed (kt) <10 10≤X<20 20≤X<30 ≥30
Wind Gust (kt) <15 15≤X<25 25≤X<35 ≥35
Weather No Wx Reported VCTS -TS,-FZRA TS,FZRA +TS,+FZRA




Page loaded:  23:02 UTC  |   03:02 PM Pacific  |   04:02 PM Mountain  |   05:02 PM Central  |   06:02 PM Eastern